createdAt,value
2022-09-06T00:00:27.826Z,2.90
2022-09-06T00:02:56.065Z,4.47
2022-09-06T00:05:23.633Z,2.60
2022-09-06T00:07:51.061Z,2.92
2022-09-06T00:10:18.848Z,5.62
2022-09-06T00:12:47.798Z,3.33
2022-09-06T00:15:15.272Z,3.77
2022-09-06T00:17:45.137Z,2.85
2022-09-06T00:20:12.623Z,4.47
2022-09-06T00:22:40.106Z,4.78
2022-09-06T00:25:08.480Z,3.45
2022-09-06T00:27:36.040Z,2.73
2022-09-06T00:30:04.804Z,2.58
2022-09-06T00:32:33.072Z,6.72
2022-09-06T00:35:00.484Z,3.12
2022-09-06T00:37:27.945Z,3.20
2022-09-06T00:39:55.722Z,4.03
2022-09-06T00:42:23.217Z,2.62
2022-09-06T00:44:50.955Z,3.50
2022-09-06T00:47:19.406Z,3.05
2022-09-06T00:49:51.142Z,3.03
2022-09-06T00:52:19.939Z,3.63
2022-09-06T00:54:50.019Z,3.67
2022-09-06T00:57:18.675Z,2.80
2022-09-06T00:59:48.203Z,3.17
2022-09-06T01:02:15.874Z,3.00
2022-09-06T01:04:45.460Z,3.33
2022-09-06T01:07:16.129Z,3.00
2022-09-06T01:10:06.183Z,3.67
2022-09-06T01:13:01.921Z,3.80
2022-09-06T01:15:44.134Z,3.30
2022-09-06T01:18:14.803Z,4.03
2022-09-06T01:21:00.393Z,4.43
2022-09-06T01:24:12.691Z,5.05
2022-09-06T01:27:13.049Z,3.12
2022-09-06T01:29:56.612Z,4.10
2022-09-06T01:32:42.759Z,4.40
2022-09-06T01:35:13.139Z,5.10
2022-09-06T01:37:41.299Z,4.80
2022-09-06T01:40:09.211Z,3.92
2022-09-06T01:42:38.435Z,4.12
2022-09-06T01:45:14.940Z,6.43
2022-09-06T01:48:22.943Z,2.58
2022-09-06T01:51:02.433Z,5.87
2022-09-06T01:54:02.596Z,3.45
2022-09-06T01:56:38.836Z,3.55
2022-09-06T01:59:13.336Z,3.53
2022-09-06T02:02:07.841Z,3.58
2022-09-06T02:04:47.787Z,3.40
2022-09-06T02:07:24.159Z,3.72
2022-09-06T02:10:08.679Z,3.72
2022-09-06T02:12:40.820Z,3.13
2022-09-06T02:15:13.727Z,3.47
2022-09-06T02:17:46.487Z,3.95
2022-09-06T02:20:22.969Z,3.95
2022-09-06T02:22:53.435Z,3.80
2022-09-06T02:25:26.715Z,3.30
2022-09-06T02:27:55.569Z,4.10
2022-09-06T02:30:23.528Z,3.92
2022-09-06T02:32:58.117Z,5.07
2022-09-06T02:35:26.306Z,4.65
2022-09-06T02:37:54.180Z,4.73
2022-09-06T02:40:21.643Z,4.55
2022-09-06T02:42:49.355Z,5.00
2022-09-06T02:45:16.814Z,4.90
2022-09-06T02:47:44.240Z,4.65
2022-09-06T02:50:13.293Z,4.80
2022-09-06T02:52:41.036Z,4.00
2022-09-06T02:55:08.753Z,5.72
2022-09-06T02:57:36.519Z,5.50
2022-09-06T03:00:04.760Z,4.68
2022-09-06T03:02:32.267Z,4.10
2022-09-06T03:05:00.124Z,4.45
2022-09-06T03:07:27.584Z,3.87
2022-09-06T03:09:56.967Z,4.15
2022-09-06T03:12:24.663Z,5.25
2022-09-06T03:14:54.968Z,4.80
2022-09-06T03:17:22.654Z,4.55
2022-09-06T03:19:50.431Z,4.32
2022-09-06T03:22:17.964Z,4.47
2022-09-06T03:24:45.381Z,3.80
2022-09-06T03:27:13.474Z,4.70
2022-09-06T03:29:40.896Z,5.78
2022-09-06T03:32:08.356Z,7.12
2022-09-06T03:34:36.182Z,4.93
2022-09-06T03:37:03.677Z,5.25
2022-09-06T03:39:31.130Z,5.13
2022-09-06T03:41:58.924Z,5.80
2022-09-06T03:44:26.361Z,5.15
2022-09-06T03:46:54.094Z,5.20
2022-09-06T03:49:21.896Z,5.00
2022-09-06T03:51:49.359Z,4.67
2022-09-06T03:54:16.819Z,4.45
2022-09-06T03:56:44.523Z,4.32
2022-09-06T03:59:11.991Z,4.45
2022-09-06T04:01:39.481Z,4.87
2022-09-06T04:04:07.242Z,4.03
2022-09-06T04:06:34.826Z,7.10
2022-09-06T04:09:02.268Z,5.30
2022-09-06T04:11:30.112Z,5.07
2022-09-06T04:13:57.532Z,6.10
2022-09-06T04:16:24.984Z,5.40
2022-09-06T04:18:53.133Z,5.87
2022-09-06T04:21:20.620Z,5.80
2022-09-06T04:23:48.127Z,5.00
2022-09-06T04:26:15.848Z,5.53
2022-09-06T04:28:43.404Z,5.40
2022-09-06T04:31:10.903Z,5.70
2022-09-06T04:33:38.734Z,4.97
2022-09-06T04:36:08.874Z,4.25
2022-09-06T04:38:42.191Z,5.75
2022-09-06T04:41:12.763Z,4.20
2022-09-06T04:43:40.454Z,6.12
2022-09-06T04:46:17.179Z,6.53
2022-09-06T04:48:44.935Z,4.40
2022-09-06T04:51:12.387Z,5.22
2022-09-06T04:53:39.840Z,5.60
2022-09-06T04:56:07.760Z,4.87
2022-09-06T04:58:35.310Z,5.35
2022-09-06T05:01:02.774Z,4.62
2022-09-06T05:03:30.608Z,5.35
2022-09-06T05:06:07.460Z,5.57
2022-09-06T05:08:38.289Z,5.53
2022-09-06T05:11:07.085Z,5.62
2022-09-06T05:13:35.648Z,5.37
2022-09-06T05:16:07.630Z,6.07
2022-09-06T05:18:36.151Z,5.10
2022-09-06T05:21:03.854Z,4.80
2022-09-06T05:23:31.397Z,6.20
2022-09-06T05:25:59.124Z,5.22
2022-09-06T05:28:26.697Z,6.90
2022-09-06T05:30:54.200Z,5.67
2022-09-06T05:33:22.858Z,4.60
2022-09-06T05:35:50.343Z,7.93
2022-09-06T05:38:18.068Z,5.05
2022-09-06T05:40:45.968Z,4.70
2022-09-06T05:43:13.393Z,5.20
2022-09-06T05:45:40.980Z,4.95
2022-09-06T05:48:08.776Z,4.57
2022-09-06T05:50:36.205Z,6.20
2022-09-06T05:53:03.660Z,6.03
2022-09-06T05:55:31.395Z,5.73
2022-09-06T05:57:58.853Z,4.87
2022-09-06T06:00:26.266Z,5.90
2022-09-06T06:02:54.012Z,5.05
2022-09-06T06:05:22.499Z,5.80
2022-09-06T06:07:50.035Z,7.23
2022-09-06T06:10:17.756Z,5.97
2022-09-06T06:12:45.189Z,5.53
2022-09-06T06:15:12.639Z,4.97
2022-09-06T06:17:40.365Z,5.30
2022-09-06T06:20:08.475Z,5.60
2022-09-06T06:22:35.920Z,5.50
2022-09-06T06:25:03.832Z,6.35
2022-09-06T06:27:31.302Z,4.85
2022-09-06T06:29:58.780Z,7.55
2022-09-06T06:32:26.642Z,6.13
2022-09-06T06:34:54.111Z,6.03
2022-09-06T06:37:21.550Z,8.63
2022-09-06T06:39:49.395Z,5.97
2022-09-06T06:42:16.882Z,7.35
2022-09-06T06:44:46.223Z,8.77
2022-09-06T06:47:14.394Z,9.65
2022-09-06T06:49:41.868Z,9.27
2022-09-06T06:52:09.308Z,9.15
2022-09-06T06:54:37.550Z,10.07
2022-09-06T06:57:05.232Z,10.27
2022-09-06T06:59:32.688Z,9.85
2022-09-06T07:02:00.505Z,12.35
2022-09-06T07:04:28.052Z,9.98
2022-09-06T07:12:31.726Z,9.43
2022-09-06T07:14:59.457Z,8.27
2022-09-06T07:17:26.885Z,8.52
2022-09-06T07:22:38.148Z,8.07
2022-09-06T07:25:06.124Z,11.30
2022-09-06T07:27:49.808Z,8.25
2022-09-06T07:30:20.011Z,8.60
2022-09-06T07:32:48.091Z,8.95
2022-09-06T07:35:15.919Z,8.70
2022-09-06T07:37:43.638Z,9.02
2022-09-06T07:40:11.466Z,8.30
2022-09-06T07:42:39.038Z,9.50
2022-09-06T07:45:07.188Z,7.93
2022-09-06T07:53:14.067Z,7.65
2022-09-06T07:56:00.503Z,8.38
2022-09-06T07:58:29.660Z,7.97
2022-09-06T08:01:20.294Z,8.03
2022-09-06T08:03:48.148Z,8.27
2022-09-06T08:06:15.637Z,8.10
2022-09-06T08:08:58.996Z,7.62
2022-09-06T08:11:30.994Z,7.60
2022-09-06T08:14:00.319Z,7.10
2022-09-06T08:16:29.704Z,7.90
2022-09-06T08:19:00.032Z,7.47
2022-09-06T08:21:32.113Z,7.78
2022-09-06T08:24:01.127Z,7.43
2022-09-06T08:26:29.902Z,8.63
2022-09-06T08:29:00.339Z,7.40
2022-09-06T08:31:30.496Z,6.80
2022-09-06T08:33:59.684Z,10.02
2022-09-06T08:36:31.406Z,6.55
2022-09-06T08:39:00.679Z,6.67
2022-09-06T08:41:31.147Z,7.15
2022-09-06T08:47:07.880Z,6.70
2022-09-06T08:49:48.052Z,7.50
2022-09-06T08:52:24.388Z,8.37
2022-09-06T08:55:01.808Z,7.97
2022-09-06T08:57:40.400Z,7.07
2022-09-06T09:00:12.294Z,7.97
2022-09-06T09:02:51.801Z,7.80
2022-09-06T09:05:28.724Z,6.30
2022-09-06T09:08:02.507Z,7.68
2022-09-06T09:10:34.788Z,7.60
2022-09-06T09:13:05.068Z,7.18
2022-09-06T09:15:40.221Z,8.20
2022-09-06T09:18:08.420Z,7.37
2022-09-06T09:20:38.146Z,7.55
2022-09-06T09:23:05.620Z,7.82
2022-09-06T09:25:34.736Z,6.82
2022-09-06T09:28:02.869Z,6.62
2022-09-06T09:30:48.796Z,6.27
2022-09-06T09:33:25.039Z,6.65
2022-09-06T09:35:52.942Z,13.40
2022-09-06T09:38:24.435Z,7.68
2022-09-06T09:41:02.936Z,8.63
2022-09-06T09:43:33.672Z,7.93
2022-09-06T09:46:16.320Z,8.63
2022-09-06T09:49:07.800Z,8.48
2022-09-06T09:51:38.243Z,7.97
2022-09-06T09:54:08.872Z,7.72
2022-09-06T09:56:41.441Z,8.53
2022-09-06T09:59:29.812Z,8.98
2022-09-06T10:02:01.481Z,8.05
2022-09-06T10:04:44.324Z,8.98
2022-09-06T10:07:17.681Z,14.48
2022-09-06T10:09:57.078Z,8.10
2022-09-06T10:12:31.211Z,8.63
2022-09-06T10:15:02.404Z,8.52
2022-09-06T10:17:52.601Z,10.30
2022-09-06T10:20:33.398Z,7.90
2022-09-06T10:23:16.378Z,8.67
2022-09-06T10:25:49.735Z,8.00
2022-09-06T10:28:20.218Z,10.25
2022-09-06T10:31:08.091Z,7.85
2022-09-06T10:34:00.141Z,8.48
2022-09-06T10:36:36.715Z,11.60
2022-09-06T10:39:16.755Z,8.32
2022-09-06T10:42:08.935Z,9.68
2022-09-06T10:45:12.618Z,8.27
2022-09-06T10:48:13.937Z,7.95
2022-09-06T10:51:20.716Z,7.93
2022-09-06T10:54:06.923Z,8.45
2022-09-06T10:56:49.688Z,8.32
2022-09-06T10:59:41.666Z,8.18
2022-09-06T11:02:18.757Z,9.73
2022-09-06T11:10:38.131Z,7.97
2022-09-06T11:13:14.933Z,9.35
2022-09-06T11:16:02.148Z,8.63
2022-09-06T11:19:09.275Z,7.80
2022-09-06T11:22:34.555Z,8.52
2022-09-06T11:25:23.784Z,8.40
2022-09-06T11:27:58.077Z,8.50
2022-09-06T11:30:27.453Z,9.40
2022-09-06T11:33:39.733Z,8.53
2022-09-06T11:36:59.645Z,8.60
2022-09-06T11:42:45.593Z,8.77
2022-09-06T11:45:59.872Z,9.10
2022-09-06T11:48:29.044Z,8.23
2022-09-06T11:50:59.832Z,8.15
2022-09-06T11:53:51.576Z,8.52
2022-09-06T11:56:32.829Z,8.07
2022-09-06T11:59:12.437Z,8.55
2022-09-06T12:01:41.073Z,8.40
2022-09-06T12:04:10.404Z,9.23
2022-09-06T12:06:43.791Z,8.75
2022-09-06T12:09:37.771Z,8.68
2022-09-06T12:12:05.759Z,8.57
2022-09-06T12:14:42.688Z,8.13
2022-09-06T12:17:11.382Z,8.13
2022-09-06T12:19:48.696Z,8.00
2022-09-06T12:22:32.818Z,7.80
2022-09-06T12:25:20.487Z,8.35
2022-09-06T12:27:57.814Z,9.07
2022-09-06T12:30:43.878Z,8.85
2022-09-06T12:33:20.511Z,8.80
2022-09-06T12:38:25.260Z,9.23
2022-09-06T12:40:58.551Z,9.30
2022-09-06T12:43:27.166Z,8.48
2022-09-06T12:45:55.048Z,9.55
2022-09-06T12:48:35.416Z,8.88
2022-09-06T12:51:05.395Z,9.07
2022-09-06T12:53:34.510Z,8.53
2022-09-06T12:56:10.148Z,8.60
2022-09-06T12:58:39.585Z,9.43
2022-09-06T13:01:17.938Z,9.85
2022-09-06T13:03:50.654Z,8.93
2022-09-06T13:06:27.034Z,9.77
2022-09-06T13:08:57.444Z,9.93
2022-09-06T13:11:34.262Z,9.35
2022-09-06T13:14:13.857Z,8.52
2022-09-06T13:16:51.180Z,10.23
2022-09-06T13:19:39.278Z,8.50
2022-09-06T13:22:11.016Z,8.98
2022-09-06T13:24:47.090Z,9.63
2022-09-06T13:27:35.785Z,9.40
2022-09-06T13:30:09.565Z,8.95
2022-09-06T13:32:46.586Z,9.07
2022-09-06T13:35:23.999Z,9.40
2022-09-06T13:37:51.582Z,8.98
2022-09-06T13:41:07.085Z,8.07
2022-09-06T13:43:29.372Z,8.77
2022-09-06T13:46:06.471Z,7.47
2022-09-06T13:48:34.666Z,8.07
2022-09-06T13:51:07.147Z,8.15
2022-09-06T13:53:35.184Z,7.43
2022-09-06T13:56:03.163Z,9.80
2022-09-06T13:58:30.741Z,7.97
2022-09-06T14:00:58.743Z,7.70
2022-09-06T14:03:32.512Z,8.27
2022-09-06T14:06:00.883Z,7.75
2022-09-06T14:08:43.649Z,8.25
2022-09-06T14:11:17.840Z,8.50
2022-09-06T14:13:45.624Z,8.77
2022-09-06T14:16:13.401Z,9.02
2022-09-06T14:18:41.473Z,8.43
2022-09-06T14:21:09.369Z,8.48
2022-09-06T14:23:36.816Z,8.73
2022-09-06T14:26:04.766Z,8.00
2022-09-06T14:28:34.146Z,7.85
2022-09-06T14:31:16.664Z,8.52
2022-09-06T14:33:44.729Z,8.38
2022-09-06T14:36:17.624Z,8.03
2022-09-06T14:38:45.923Z,7.95
2022-09-06T14:41:14.846Z,10.32
2022-09-06T14:43:44.200Z,7.65
2022-09-06T14:46:14.962Z,8.15
2022-09-06T14:48:43.296Z,8.03
2022-09-06T14:51:13.624Z,8.05
2022-09-06T14:53:43.437Z,8.82
2022-09-06T14:56:12.115Z,9.38
2022-09-06T14:58:40.396Z,8.65
2022-09-06T15:01:13.066Z,8.60
2022-09-06T15:03:43.007Z,8.55
2022-09-06T15:06:11.081Z,12.75
2022-09-06T15:08:38.958Z,9.15
2022-09-06T15:11:08.311Z,8.52
2022-09-06T15:13:37.395Z,8.33
2022-09-06T15:16:06.851Z,8.52
2022-09-06T15:18:35.393Z,8.73
2022-09-06T15:21:15.300Z,7.85
2022-09-06T15:23:43.984Z,8.32
2022-09-06T15:26:13.678Z,8.53
2022-09-06T15:28:43.300Z,7.87
2022-09-06T15:31:12.245Z,10.18
2022-09-06T15:33:40.995Z,7.93
2022-09-06T15:36:10.267Z,7.57
2022-09-06T15:38:47.399Z,13.23
2022-09-06T15:41:27.100Z,8.20
2022-09-06T15:43:57.098Z,10.10
2022-09-06T15:46:45.392Z,8.18
2022-09-06T15:49:16.203Z,8.27
2022-09-06T15:51:45.146Z,8.00
2022-09-06T15:54:14.669Z,8.38
2022-09-06T15:56:42.884Z,8.80
2022-09-06T15:59:12.042Z,9.07
2022-09-06T16:01:39.810Z,8.60
2022-09-06T16:04:07.780Z,8.57
2022-09-06T16:06:42.619Z,14.27
2022-09-06T16:09:17.627Z,11.90
2022-09-06T16:11:45.248Z,11.85
2022-09-06T16:14:15.438Z,8.65
2022-09-06T16:16:43.653Z,11.47
2022-09-06T16:19:12.698Z,9.35
2022-09-06T16:21:42.685Z,10.05
2022-09-06T16:24:12.234Z,8.90
2022-09-06T16:26:43.691Z,9.93
2022-09-06T16:29:13.595Z,8.10
2022-09-06T16:31:41.473Z,8.63
2022-09-06T16:34:09.993Z,9.43
2022-09-06T16:36:37.727Z,9.57
2022-09-06T16:39:07.258Z,8.65
2022-09-06T16:41:43.210Z,9.73
2022-09-06T16:44:16.303Z,8.77
2022-09-06T16:46:46.642Z,8.48
2022-09-06T16:49:17.142Z,8.82
2022-09-06T16:51:45.801Z,8.60
2022-09-06T16:54:15.476Z,9.80
2022-09-06T16:56:44.060Z,9.15
2022-09-06T16:59:12.648Z,10.95
2022-09-06T17:01:44.356Z,8.98
2022-09-06T17:04:13.087Z,9.38
2022-09-06T17:06:46.921Z,12.93
2022-09-06T17:09:17.769Z,9.90
2022-09-06T17:11:45.355Z,9.55
2022-09-06T17:14:12.962Z,9.77
2022-09-06T17:16:59.409Z,13.73
2022-09-06T17:19:27.624Z,10.17
2022-09-06T17:21:55.519Z,10.18
2022-09-06T17:24:23.456Z,10.63
2022-09-06T17:26:50.924Z,11.12
2022-09-06T17:29:19.555Z,8.75
2022-09-06T17:31:48.072Z,8.17
2022-09-06T17:34:15.890Z,9.63
2022-09-06T17:36:43.840Z,8.82
2022-09-06T17:39:17.695Z,9.82
2022-09-06T17:41:53.638Z,11.80
2022-09-06T17:44:23.316Z,11.07
2022-09-06T17:47:11.483Z,11.85
2022-09-06T17:49:39.446Z,9.63
2022-09-06T17:52:07.195Z,11.40
2022-09-06T17:54:34.668Z,11.82
2022-09-06T17:57:02.083Z,10.47
2022-09-06T17:59:35.063Z,11.23
2022-09-06T18:02:04.328Z,16.70
2022-09-06T18:04:32.322Z,10.68
2022-09-06T18:06:59.868Z,9.35
2022-09-06T18:09:27.374Z,22.53
2022-09-06T18:11:55.511Z,10.85
2022-09-06T18:14:23.258Z,9.60
2022-09-06T18:16:52.540Z,8.93
2022-09-06T18:19:21.127Z,9.38
2022-09-06T18:21:49.070Z,9.33
2022-09-06T18:24:17.001Z,10.85
2022-09-06T18:26:46.498Z,9.43
2022-09-06T18:29:16.615Z,13.55
2022-09-06T18:31:44.719Z,9.73
2022-09-06T18:34:12.682Z,9.83
2022-09-06T18:36:40.285Z,9.02
2022-09-06T18:39:08.359Z,9.05
2022-09-06T18:41:54.657Z,8.65
2022-09-06T18:44:22.524Z,9.98
2022-09-06T18:46:50.413Z,8.90
2022-09-06T18:49:18.474Z,8.43
2022-09-06T18:51:46.030Z,11.23
2022-09-06T18:54:14.773Z,8.73
2022-09-06T18:56:46.042Z,12.70
2022-09-06T18:59:14.113Z,9.30
2022-09-06T19:01:43.068Z,8.48
2022-09-06T19:04:11.851Z,9.30
2022-09-06T19:06:41.753Z,8.27
2022-09-06T19:09:12.603Z,12.45
2022-09-06T19:11:42.782Z,8.93
2022-09-06T19:14:10.349Z,9.07
2022-09-06T19:16:38.106Z,10.40
2022-09-06T19:19:07.579Z,8.45
2022-09-06T19:21:40.778Z,9.80
2022-09-06T19:24:11.607Z,10.13
2022-09-06T19:26:41.754Z,12.13
2022-09-06T19:29:17.489Z,13.95
2022-09-06T19:31:47.084Z,10.98
2022-09-06T19:34:16.208Z,10.98
2022-09-06T19:36:44.896Z,11.00
2022-09-06T19:39:17.991Z,9.88
2022-09-06T19:41:46.987Z,9.88
2022-09-06T19:44:16.299Z,13.75
2022-09-06T19:46:46.734Z,10.15
2022-09-06T19:49:17.018Z,8.63
2022-09-06T19:51:46.541Z,8.63
2022-09-06T19:54:15.595Z,11.20
2022-09-06T19:56:44.449Z,10.60
2022-09-06T19:59:13.376Z,10.48
2022-09-06T20:01:43.425Z,10.20
2022-09-06T20:04:13.645Z,10.00
2022-09-06T20:06:41.590Z,9.88
2022-09-06T20:09:10.590Z,11.27
2022-09-06T20:11:41.324Z,11.05
2022-09-06T20:14:10.277Z,11.40
2022-09-06T20:16:41.372Z,14.10
2022-09-06T20:19:12.159Z,10.70
2022-09-06T20:21:40.685Z,12.35
2022-09-06T20:24:08.443Z,11.02
2022-09-06T20:26:35.897Z,11.43
2022-09-06T20:29:05.068Z,10.80
2022-09-06T20:31:33.378Z,10.73
2022-09-06T20:34:03.261Z,10.70
2022-09-06T20:36:31.397Z,10.63
2022-09-06T20:38:58.899Z,11.20
2022-09-06T20:41:27.311Z,14.50
2022-09-06T20:43:59.566Z,14.40
2022-09-06T20:46:29.625Z,11.35
2022-09-06T20:48:59.827Z,10.63
2022-09-06T20:51:27.689Z,18.47
2022-09-06T20:53:57.320Z,10.00
2022-09-06T20:56:27.946Z,10.98
2022-09-06T20:58:57.938Z,12.65
2022-09-06T21:01:28.019Z,11.60
2022-09-06T21:03:58.039Z,12.13
2022-09-06T21:06:28.129Z,12.95
2022-09-06T21:08:56.676Z,11.48
2022-09-06T21:11:24.267Z,12.48
2022-09-06T21:13:55.827Z,10.65
2022-09-06T21:16:26.118Z,10.50
2022-09-06T21:18:59.604Z,15.00
2022-09-06T21:21:28.597Z,11.45
2022-09-06T21:23:56.471Z,13.20
2022-09-06T21:26:24.063Z,12.55
2022-09-06T21:28:51.531Z,10.57
2022-09-06T21:31:24.624Z,11.98
2022-09-06T21:33:54.288Z,11.43
2022-09-06T21:36:29.972Z,12.07
2022-09-06T21:39:06.141Z,11.43
2022-09-06T21:41:37.036Z,13.10
2022-09-06T21:44:06.748Z,13.77
2022-09-06T21:46:36.722Z,11.63
2022-09-06T21:49:09.751Z,13.23
2022-09-06T21:51:37.759Z,13.55
2022-09-06T21:54:06.187Z,12.10
2022-09-06T21:56:36.028Z,11.75
2022-09-06T21:59:05.131Z,13.73
2022-09-06T22:01:34.486Z,11.27
2022-09-06T22:04:02.743Z,12.82
2022-09-06T22:06:32.303Z,12.37
2022-09-06T22:09:02.687Z,11.43
2022-09-06T22:11:32.991Z,12.10
2022-09-06T22:14:05.808Z,12.77
2022-09-06T22:16:35.876Z,12.35
2022-09-06T22:19:04.950Z,10.87
2022-09-06T22:21:33.680Z,14.52
2022-09-06T22:24:03.788Z,14.50
2022-09-06T22:26:33.087Z,14.07
2022-09-06T22:29:03.458Z,11.55
2022-09-06T22:31:32.962Z,12.37
2022-09-06T22:34:01.026Z,15.55
2022-09-06T22:36:28.773Z,15.48
2022-09-06T22:38:59.317Z,15.05
2022-09-06T22:41:30.006Z,13.73
2022-09-06T22:43:59.691Z,12.10
2022-09-06T22:46:28.034Z,16.25
2022-09-06T22:48:55.611Z,12.93
2022-09-06T22:51:23.072Z,13.27
2022-09-06T22:53:51.109Z,12.57
2022-09-06T22:56:18.824Z,14.23
2022-09-06T22:58:46.272Z,11.48
2022-09-06T23:01:16.244Z,13.50
2022-09-06T23:03:44.684Z,15.07
2022-09-06T23:06:12.659Z,15.95
2022-09-06T23:08:41.495Z,14.43
2022-09-06T23:11:14.375Z,13.68
2022-09-06T23:13:46.193Z,17.58
2022-09-06T23:16:17.368Z,13.70
2022-09-06T23:18:46.044Z,15.68
2022-09-06T23:21:17.350Z,12.00
2022-09-06T23:23:46.787Z,15.70
2022-09-06T23:26:17.631Z,12.65
2022-09-06T23:28:46.079Z,13.05
2022-09-06T23:31:16.919Z,12.70
2022-09-06T23:33:44.721Z,14.33
2022-09-06T23:36:14.628Z,13.82
2022-09-06T23:38:42.800Z,13.95
2022-09-06T23:41:11.264Z,12.55
2022-09-06T23:43:40.139Z,12.37
2022-09-06T23:46:08.629Z,13.40
2022-09-06T23:48:36.857Z,13.65
2022-09-06T23:51:05.534Z,11.95
2022-09-06T23:53:33.172Z,15.38
2022-09-06T23:56:01.316Z,13.13
2022-09-06T23:58:28.841Z,12.93
